sensor_id;sensor_type;location;lat;lon;timestamp;P1;durP1;ratioP1;P2;durP2;ratioP2
76131;SDS011;64877;50.994;13.650;2023-02-15T00:00:09;30.15;;;16.60;;
76131;SDS011;64877;50.994;13.650;2023-02-15T00:02:38;29.75;;;15.35;;
76131;SDS011;64877;50.994;13.650;2023-02-15T00:05:04;28.38;;;14.75;;
76131;SDS011;64877;50.994;13.650;2023-02-15T00:07:30;29.30;;;15.40;;
76131;SDS011;64877;50.994;13.650;2023-02-15T00:09:55;32.90;;;16.55;;
76131;SDS011;64877;50.994;13.650;2023-02-15T00:12:21;30.73;;;15.30;;
76131;SDS011;64877;50.994;13.650;2023-02-15T00:14:47;31.75;;;14.88;;
76131;SDS011;64877;50.994;13.650;2023-02-15T00:17:12;25.58;;;13.60;;
76131;SDS011;64877;50.994;13.650;2023-02-15T00:19:38;28.05;;;13.98;;
76131;SDS011;64877;50.994;13.650;2023-02-15T00:22:04;25.40;;;13.82;;
76131;SDS011;64877;50.994;13.650;2023-02-15T00:24:30;26.17;;;14.02;;
76131;SDS011;64877;50.994;13.650;2023-02-15T00:26:56;26.33;;;13.65;;
76131;SDS011;64877;50.994;13.650;2023-02-15T00:29:22;27.27;;;13.77;;
76131;SDS011;64877;50.994;13.650;2023-02-15T00:31:47;26.67;;;14.13;;
76131;SDS011;64877;50.994;13.650;2023-02-15T00:36:43;26.80;;;13.02;;
76131;SDS011;64877;50.994;13.650;2023-02-15T00:39:10;23.17;;;12.98;;
76131;SDS011;64877;50.994;13.650;2023-02-15T00:41:36;25.23;;;13.13;;
76131;SDS011;64877;50.994;13.650;2023-02-15T00:44:01;25.35;;;13.15;;
76131;SDS011;64877;50.994;13.650;2023-02-15T00:46:27;28.98;;;15.25;;
76131;SDS011;64877;50.994;13.650;2023-02-15T00:48:53;28.23;;;13.60;;
76131;SDS011;64877;50.994;13.650;2023-02-15T00:51:18;29.20;;;13.93;;
76131;SDS011;64877;50.994;13.650;2023-02-15T00:53:45;29.55;;;14.00;;
76131;SDS011;64877;50.994;13.650;2023-02-15T00:56:10;24.75;;;12.98;;
76131;SDS011;64877;50.994;13.650;2023-02-15T00:58:36;28.30;;;13.65;;
76131;SDS011;64877;50.994;13.650;2023-02-15T01:01:03;23.38;;;12.48;;
76131;SDS011;64877;50.994;13.650;2023-02-15T01:03:33;27.85;;;13.43;;
76131;SDS011;64877;50.994;13.650;2023-02-15T01:05:59;26.80;;;12.68;;
76131;SDS011;64877;50.994;13.650;2023-02-15T01:08:25;23.75;;;13.32;;
76131;SDS011;64877;50.994;13.650;2023-02-15T01:10:51;23.17;;;11.23;;
76131;SDS011;64877;50.994;13.650;2023-02-15T01:13:18;17.45;;;10.05;;
76131;SDS011;64877;50.994;13.650;2023-02-15T01:15:43;20.60;;;10.77;;
76131;SDS011;64877;50.994;13.650;2023-02-15T01:18:09;21.52;;;10.50;;
76131;SDS011;64877;50.994;13.650;2023-02-15T01:20:36;22.83;;;10.85;;
76131;SDS011;64877;50.994;13.650;2023-02-15T01:23:04;21.83;;;11.95;;
76131;SDS011;64877;50.994;13.650;2023-02-15T01:25:30;19.95;;;10.93;;
76131;SDS011;64877;50.994;13.650;2023-02-15T01:27:57;20.60;;;10.60;;
76131;SDS011;64877;50.994;13.650;2023-02-15T01:30:22;20.85;;;11.02;;
76131;SDS011;64877;50.994;13.650;2023-02-15T01:32:48;20.63;;;10.75;;
76131;SDS011;64877;50.994;13.650;2023-02-15T01:35:13;22.17;;;10.48;;
76131;SDS011;64877;50.994;13.650;2023-02-15T01:37:39;18.95;;;10.65;;
76131;SDS011;64877;50.994;13.650;2023-02-15T01:40:05;20.95;;;10.38;;
76131;SDS011;64877;50.994;13.650;2023-02-15T01:42:33;20.90;;;11.23;;
76131;SDS011;64877;50.994;13.650;2023-02-15T01:45:00;21.88;;;11.73;;
76131;SDS011;64877;50.994;13.650;2023-02-15T01:50:10;25.73;;;11.77;;
76131;SDS011;64877;50.994;13.650;2023-02-15T01:55:18;19.73;;;9.60;;
76131;SDS011;64877;50.994;13.650;2023-02-15T01:57:45;18.05;;;9.88;;
76131;SDS011;64877;50.994;13.650;2023-02-15T02:00:11;25.42;;;10.45;;
76131;SDS011;64877;50.994;13.650;2023-02-15T02:02:38;20.52;;;9.82;;
76131;SDS011;64877;50.994;13.650;2023-02-15T02:05:05;17.70;;;10.32;;
76131;SDS011;64877;50.994;13.650;2023-02-15T02:07:35;18.63;;;9.63;;
76131;SDS011;64877;50.994;13.650;2023-02-15T02:10:05;22.95;;;9.77;;
76131;SDS011;64877;50.994;13.650;2023-02-15T02:12:32;17.67;;;8.80;;
76131;SDS011;64877;50.994;13.650;2023-02-15T02:14:58;17.83;;;9.02;;
76131;SDS011;64877;50.994;13.650;2023-02-15T02:31:23;15.15;;;8.27;;
76131;SDS011;64877;50.994;13.650;2023-02-15T02:39:20;16.95;;;8.55;;
76131;SDS011;64877;50.994;13.650;2023-02-15T02:41:58;14.13;;;8.23;;
76131;SDS011;64877;50.994;13.650;2023-02-15T02:47:21;15.30;;;7.97;;
76131;SDS011;64877;50.994;13.650;2023-02-15T02:49:52;13.27;;;7.20;;
76131;SDS011;64877;50.994;13.650;2023-02-15T02:57:38;15.18;;;7.80;;
76131;SDS011;64877;50.994;13.650;2023-02-15T03:00:08;15.27;;;7.85;;
76131;SDS011;64877;50.994;13.650;2023-02-15T03:02:36;18.38;;;7.70;;
76131;SDS011;64877;50.994;13.650;2023-02-15T03:05:06;17.40;;;8.27;;
76131;SDS011;64877;50.994;13.650;2023-02-15T03:07:38;16.40;;;7.93;;
76131;SDS011;64877;50.994;13.650;2023-02-15T03:10:06;15.77;;;8.18;;
76131;SDS011;64877;50.994;13.650;2023-02-15T03:12:37;14.25;;;7.75;;
76131;SDS011;64877;50.994;13.650;2023-02-15T03:17:47;13.57;;;6.57;;
76131;SDS011;64877;50.994;13.650;2023-02-15T03:22:54;13.57;;;6.55;;
76131;SDS011;64877;50.994;13.650;2023-02-15T03:25:24;11.15;;;6.53;;
76131;SDS011;64877;50.994;13.650;2023-02-15T03:27:58;12.00;;;6.82;;
76131;SDS011;64877;50.994;13.650;2023-02-15T03:30:27;11.55;;;6.30;;
76131;SDS011;64877;50.994;13.650;2023-02-15T03:32:55;14.98;;;7.47;;
76131;SDS011;64877;50.994;13.650;2023-02-15T03:35:25;12.13;;;6.63;;
76131;SDS011;64877;50.994;13.650;2023-02-15T03:37:59;11.80;;;6.68;;
76131;SDS011;64877;50.994;13.650;2023-02-15T03:40:31;15.63;;;8.35;;
76131;SDS011;64877;50.994;13.650;2023-02-15T03:51:39;14.93;;;7.28;;
76131;SDS011;64877;50.994;13.650;2023-02-15T03:54:08;13.27;;;7.47;;
76131;SDS011;64877;50.994;13.650;2023-02-15T03:56:38;12.02;;;6.93;;
76131;SDS011;64877;50.994;13.650;2023-02-15T03:59:06;13.65;;;5.97;;
76131;SDS011;64877;50.994;13.650;2023-02-15T04:02:04;12.75;;;6.05;;
76131;SDS011;64877;50.994;13.650;2023-02-15T04:04:46;11.88;;;5.95;;
76131;SDS011;64877;50.994;13.650;2023-02-15T04:07:12;14.15;;;6.75;;
76131;SDS011;64877;50.994;13.650;2023-02-15T04:09:38;13.88;;;6.93;;
76131;SDS011;64877;50.994;13.650;2023-02-15T04:12:22;12.52;;;7.18;;
76131;SDS011;64877;50.994;13.650;2023-02-15T04:14:48;10.52;;;5.60;;
76131;SDS011;64877;50.994;13.650;2023-02-15T04:17:32;13.50;;;6.65;;
76131;SDS011;64877;50.994;13.650;2023-02-15T04:19:57;11.25;;;6.32;;
76131;SDS011;64877;50.994;13.650;2023-02-15T04:22:41;12.70;;;6.55;;
76131;SDS011;64877;50.994;13.650;2023-02-15T04:25:26;10.40;;;5.78;;
76131;SDS011;64877;50.994;13.650;2023-02-15T04:27:52;11.25;;;6.22;;
76131;SDS011;64877;50.994;13.650;2023-02-15T04:30:22;10.68;;;5.88;;
76131;SDS011;64877;50.994;13.650;2023-02-15T04:32:49;15.00;;;7.15;;
76131;SDS011;64877;50.994;13.650;2023-02-15T04:35:15;12.32;;;6.32;;
76131;SDS011;64877;50.994;13.650;2023-02-15T04:37:41;10.60;;;5.05;;
76131;SDS011;64877;50.994;13.650;2023-02-15T04:40:07;9.63;;;5.38;;
76131;SDS011;64877;50.994;13.650;2023-02-15T04:42:34;10.55;;;6.10;;
76131;SDS011;64877;50.994;13.650;2023-02-15T04:44:59;11.55;;;5.63;;
76131;SDS011;64877;50.994;13.650;2023-02-15T04:47:24;16.27;;;7.43;;
76131;SDS011;64877;50.994;13.650;2023-02-15T04:49:50;11.68;;;6.65;;
76131;SDS011;64877;50.994;13.650;2023-02-15T04:52:15;12.05;;;6.15;;
76131;SDS011;64877;50.994;13.650;2023-02-15T04:54:42;10.40;;;5.35;;
76131;SDS011;64877;50.994;13.650;2023-02-15T04:57:08;10.00;;;5.13;;
76131;SDS011;64877;50.994;13.650;2023-02-15T04:59:33;13.32;;;6.13;;
76131;SDS011;64877;50.994;13.650;2023-02-15T05:01:59;12.43;;;6.00;;
76131;SDS011;64877;50.994;13.650;2023-02-15T05:04:24;10.60;;;5.55;;
76131;SDS011;64877;50.994;13.650;2023-02-15T05:06:49;9.07;;;5.03;;
76131;SDS011;64877;50.994;13.650;2023-02-15T05:09:15;10.02;;;5.15;;
76131;SDS011;64877;50.994;13.650;2023-02-15T05:11:41;10.45;;;5.10;;
76131;SDS011;64877;50.994;13.650;2023-02-15T05:14:06;11.75;;;6.00;;
76131;SDS011;64877;50.994;13.650;2023-02-15T05:16:32;12.73;;;6.53;;
76131;SDS011;64877;50.994;13.650;2023-02-15T05:18:57;11.25;;;5.88;;
76131;SDS011;64877;50.994;13.650;2023-02-15T05:21:23;10.25;;;5.20;;
76131;SDS011;64877;50.994;13.650;2023-02-15T05:23:48;11.15;;;4.82;;
76131;SDS011;64877;50.994;13.650;2023-02-15T05:26:16;11.23;;;5.55;;
76131;SDS011;64877;50.994;13.650;2023-02-15T05:29:07;9.10;;;4.75;;
76131;SDS011;64877;50.994;13.650;2023-02-15T05:31:33;9.05;;;4.60;;
76131;SDS011;64877;50.994;13.650;2023-02-15T05:33:59;11.23;;;5.03;;
76131;SDS011;64877;50.994;13.650;2023-02-15T05:36:25;9.38;;;4.68;;
76131;SDS011;64877;50.994;13.650;2023-02-15T05:38:50;8.15;;;4.45;;
76131;SDS011;64877;50.994;13.650;2023-02-15T05:41:15;13.93;;;5.72;;
76131;SDS011;64877;50.994;13.650;2023-02-15T05:43:41;11.52;;;5.38;;
76131;SDS011;64877;50.994;13.650;2023-02-15T05:46:07;9.93;;;4.68;;
76131;SDS011;64877;50.994;13.650;2023-02-15T05:48:33;10.70;;;5.82;;
76131;SDS011;64877;50.994;13.650;2023-02-15T05:51:00;9.75;;;5.75;;
76131;SDS011;64877;50.994;13.650;2023-02-15T05:53:26;11.00;;;5.78;;
76131;SDS011;64877;50.994;13.650;2023-02-15T05:55:52;11.70;;;5.38;;
76131;SDS011;64877;50.994;13.650;2023-02-15T05:58:19;11.95;;;5.93;;
76131;SDS011;64877;50.994;13.650;2023-02-15T06:00:45;11.85;;;5.75;;
76131;SDS011;64877;50.994;13.650;2023-02-15T06:03:10;10.07;;;5.70;;
76131;SDS011;64877;50.994;13.650;2023-02-15T06:05:35;13.38;;;6.18;;
76131;SDS011;64877;50.994;13.650;2023-02-15T06:08:01;12.20;;;7.10;;
76131;SDS011;64877;50.994;13.650;2023-02-15T06:10:26;11.45;;;6.80;;
76131;SDS011;64877;50.994;13.650;2023-02-15T06:12:51;14.10;;;6.55;;
76131;SDS011;64877;50.994;13.650;2023-02-15T06:15:17;14.82;;;7.60;;
76131;SDS011;64877;50.994;13.650;2023-02-15T06:17:42;11.75;;;5.55;;
76131;SDS011;64877;50.994;13.650;2023-02-15T06:20:08;10.55;;;5.57;;
76131;SDS011;64877;50.994;13.650;2023-02-15T06:22:34;10.07;;;5.60;;
76131;SDS011;64877;50.994;13.650;2023-02-15T06:24:59;8.50;;;4.75;;
76131;SDS011;64877;50.994;13.650;2023-02-15T06:27:25;11.40;;;5.70;;
76131;SDS011;64877;50.994;13.650;2023-02-15T06:29:50;10.77;;;5.50;;
76131;SDS011;64877;50.994;13.650;2023-02-15T06:32:15;8.95;;;5.15;;
76131;SDS011;64877;50.994;13.650;2023-02-15T06:34:41;11.40;;;6.15;;
76131;SDS011;64877;50.994;13.650;2023-02-15T06:37:06;11.90;;;6.43;;
76131;SDS011;64877;50.994;13.650;2023-02-15T06:39:33;15.63;;;7.47;;
76131;SDS011;64877;50.994;13.650;2023-02-15T06:41:58;13.80;;;6.80;;
76131;SDS011;64877;50.994;13.650;2023-02-15T06:44:24;13.93;;;7.40;;
76131;SDS011;64877;50.994;13.650;2023-02-15T06:46:49;14.40;;;7.78;;
76131;SDS011;64877;50.994;13.650;2023-02-15T06:49:15;15.52;;;7.45;;
76131;SDS011;64877;50.994;13.650;2023-02-15T06:51:40;14.35;;;8.23;;
76131;SDS011;64877;50.994;13.650;2023-02-15T06:54:05;15.65;;;7.22;;
76131;SDS011;64877;50.994;13.650;2023-02-15T06:56:31;18.48;;;7.30;;
76131;SDS011;64877;50.994;13.650;2023-02-15T06:58:56;17.95;;;7.82;;
76131;SDS011;64877;50.994;13.650;2023-02-15T07:01:21;17.38;;;7.60;;
76131;SDS011;64877;50.994;13.650;2023-02-15T07:03:47;15.48;;;7.97;;
76131;SDS011;64877;50.994;13.650;2023-02-15T07:06:12;12.90;;;6.50;;
76131;SDS011;64877;50.994;13.650;2023-02-15T07:08:38;13.68;;;7.72;;
76131;SDS011;64877;50.994;13.650;2023-02-15T07:11:04;13.70;;;7.43;;
76131;SDS011;64877;50.994;13.650;2023-02-15T07:14:00;16.05;;;7.80;;
76131;SDS011;64877;50.994;13.650;2023-02-15T07:16:25;16.05;;;7.35;;
76131;SDS011;64877;50.994;13.650;2023-02-15T07:18:50;16.33;;;8.20;;
76131;SDS011;64877;50.994;13.650;2023-02-15T07:21:16;19.77;;;9.55;;
76131;SDS011;64877;50.994;13.650;2023-02-15T07:23:41;23.30;;;11.00;;
76131;SDS011;64877;50.994;13.650;2023-02-15T07:26:07;20.52;;;11.25;;
76131;SDS011;64877;50.994;13.650;2023-02-15T07:28:33;18.80;;;10.20;;
76131;SDS011;64877;50.994;13.650;2023-02-15T07:31:02;15.65;;;8.63;;
76131;SDS011;64877;50.994;13.650;2023-02-15T07:33:32;17.90;;;8.70;;
76131;SDS011;64877;50.994;13.650;2023-02-15T07:35:59;11.90;;;6.95;;
76131;SDS011;64877;50.994;13.650;2023-02-15T07:38:29;14.27;;;7.85;;
76131;SDS011;64877;50.994;13.650;2023-02-15T07:40:59;18.63;;;8.90;;
76131;SDS011;64877;50.994;13.650;2023-02-15T07:43:26;14.77;;;8.10;;
76131;SDS011;64877;50.994;13.650;2023-02-15T07:45:53;16.00;;;8.00;;
76131;SDS011;64877;50.994;13.650;2023-02-15T07:48:18;15.57;;;8.18;;
76131;SDS011;64877;50.994;13.650;2023-02-15T07:50:43;14.40;;;8.18;;
76131;SDS011;64877;50.994;13.650;2023-02-15T07:53:09;15.30;;;8.13;;
76131;SDS011;64877;50.994;13.650;2023-02-15T07:55:34;13.40;;;7.55;;
76131;SDS011;64877;50.994;13.650;2023-02-15T07:57:59;15.93;;;7.82;;
76131;SDS011;64877;50.994;13.650;2023-02-15T08:00:25;14.70;;;8.65;;
76131;SDS011;64877;50.994;13.650;2023-02-15T08:02:52;11.77;;;7.07;;
76131;SDS011;64877;50.994;13.650;2023-02-15T08:05:38;15.90;;;9.30;;
76131;SDS011;64877;50.994;13.650;2023-02-15T08:08:04;16.52;;;10.07;;
76131;SDS011;64877;50.994;13.650;2023-02-15T08:10:29;13.70;;;8.15;;
76131;SDS011;64877;50.994;13.650;2023-02-15T08:13:13;13.57;;;7.97;;
76131;SDS011;64877;50.994;13.650;2023-02-15T08:15:39;14.80;;;8.68;;
76131;SDS011;64877;50.994;13.650;2023-02-15T08:18:04;15.70;;;8.40;;
76131;SDS011;64877;50.994;13.650;2023-02-15T08:20:30;14.25;;;8.13;;
76131;SDS011;64877;50.994;13.650;2023-02-15T08:22:55;13.30;;;8.57;;
76131;SDS011;64877;50.994;13.650;2023-02-15T08:25:21;14.70;;;7.65;;
76131;SDS011;64877;50.994;13.650;2023-02-15T08:27:46;13.77;;;8.85;;
76131;SDS011;64877;50.994;13.650;2023-02-15T08:30:12;12.02;;;7.90;;
76131;SDS011;64877;50.994;13.650;2023-02-15T08:32:39;12.40;;;7.22;;
76131;SDS011;64877;50.994;13.650;2023-02-15T08:35:05;18.30;;;8.38;;
76131;SDS011;64877;50.994;13.650;2023-02-15T08:37:30;15.52;;;7.65;;
76131;SDS011;64877;50.994;13.650;2023-02-15T08:39:56;15.38;;;7.00;;
76131;SDS011;64877;50.994;13.650;2023-02-15T08:42:21;10.82;;;6.38;;
76131;SDS011;64877;50.994;13.650;2023-02-15T08:44:46;12.85;;;7.75;;
76131;SDS011;64877;50.994;13.650;2023-02-15T08:47:12;10.85;;;6.47;;
76131;SDS011;64877;50.994;13.650;2023-02-15T08:49:37;19.98;;;8.52;;
76131;SDS011;64877;50.994;13.650;2023-02-15T08:52:02;13.57;;;7.57;;
76131;SDS011;64877;50.994;13.650;2023-02-15T08:54:28;13.65;;;7.70;;
76131;SDS011;64877;50.994;13.650;2023-02-15T08:56:53;13.63;;;7.65;;
76131;SDS011;64877;50.994;13.650;2023-02-15T08:59:20;13.85;;;7.45;;
76131;SDS011;64877;50.994;13.650;2023-02-15T09:01:47;15.93;;;7.53;;
76131;SDS011;64877;50.994;13.650;2023-02-15T09:04:13;13.07;;;7.72;;
76131;SDS011;64877;50.994;13.650;2023-02-15T09:06:40;14.18;;;7.70;;
76131;SDS011;64877;50.994;13.650;2023-02-15T09:09:08;13.45;;;8.05;;
76131;SDS011;64877;50.994;13.650;2023-02-15T09:11:35;14.73;;;7.75;;
76131;SDS011;64877;50.994;13.650;2023-02-15T09:14:08;14.18;;;7.75;;
76131;SDS011;64877;50.994;13.650;2023-02-15T09:16:38;18.48;;;9.02;;
76131;SDS011;64877;50.994;13.650;2023-02-15T09:19:05;21.17;;;8.35;;
76131;SDS011;64877;50.994;13.650;2023-02-15T09:21:31;15.68;;;8.20;;
76131;SDS011;64877;50.994;13.650;2023-02-15T09:23:58;15.15;;;8.15;;
76131;SDS011;64877;50.994;13.650;2023-02-15T09:26:26;15.45;;;8.32;;
76131;SDS011;64877;50.994;13.650;2023-02-15T09:28:54;17.45;;;9.43;;
76131;SDS011;64877;50.994;13.650;2023-02-15T09:31:23;15.90;;;8.50;;
76131;SDS011;64877;50.994;13.650;2023-02-15T09:33:50;16.45;;;8.57;;
76131;SDS011;64877;50.994;13.650;2023-02-15T09:36:16;14.35;;;8.60;;
76131;SDS011;64877;50.994;13.650;2023-02-15T09:38:44;16.05;;;7.88;;
76131;SDS011;64877;50.994;13.650;2023-02-15T09:52:15;14.30;;;7.80;;
76131;SDS011;64877;50.994;13.650;2023-02-15T09:57:30;14.40;;;7.15;;
76131;SDS011;64877;50.994;13.650;2023-02-15T10:08:20;13.10;;;7.65;;
76131;SDS011;64877;50.994;13.650;2023-02-15T10:20:00;13.60;;;7.18;;
76131;SDS011;64877;50.994;13.650;2023-02-15T10:27:54;14.25;;;7.35;;
76131;SDS011;64877;50.994;13.650;2023-02-15T10:30:29;13.20;;;6.72;;
76131;SDS011;64877;50.994;13.650;2023-02-15T10:33:35;12.77;;;6.93;;
76131;SDS011;64877;50.994;13.650;2023-02-15T10:58:01;11.48;;;7.15;;
76131;SDS011;64877;50.994;13.650;2023-02-15T11:06:31;14.30;;;7.53;;
76131;SDS011;64877;50.994;13.650;2023-02-15T11:09:01;12.75;;;7.15;;
76131;SDS011;64877;50.994;13.650;2023-02-15T11:11:32;10.48;;;5.78;;
76131;SDS011;64877;50.994;13.650;2023-02-15T11:14:14;11.18;;;6.45;;
76131;SDS011;64877;50.994;13.650;2023-02-15T11:16:53;15.00;;;6.88;;
76131;SDS011;64877;50.994;13.650;2023-02-15T11:19:31;12.65;;;6.88;;
76131;SDS011;64877;50.994;13.650;2023-02-15T11:21:59;14.45;;;7.40;;
76131;SDS011;64877;50.994;13.650;2023-02-15T11:24:29;15.32;;;7.40;;
76131;SDS011;64877;50.994;13.650;2023-02-15T11:30:24;12.68;;;6.68;;
76131;SDS011;64877;50.994;13.650;2023-02-15T11:32:44;13.77;;;7.15;;
76131;SDS011;64877;50.994;13.650;2023-02-15T11:37:50;14.77;;;6.40;;
76131;SDS011;64877;50.994;13.650;2023-02-15T11:40:43;12.02;;;6.85;;
76131;SDS011;64877;50.994;13.650;2023-02-15T11:45:45;15.27;;;7.82;;
76131;SDS011;64877;50.994;13.650;2023-02-15T11:48:12;16.00;;;6.35;;
76131;SDS011;64877;50.994;13.650;2023-02-15T11:50:39;14.52;;;7.20;;
76131;SDS011;64877;50.994;13.650;2023-02-15T11:53:09;12.95;;;6.82;;
76131;SDS011;64877;50.994;13.650;2023-02-15T11:55:38;12.70;;;6.70;;
76131;SDS011;64877;50.994;13.650;2023-02-15T12:01:00;12.45;;;6.00;;
76131;SDS011;64877;50.994;13.650;2023-02-15T12:05:58;12.55;;;6.00;;
76131;SDS011;64877;50.994;13.650;2023-02-15T12:08:30;10.00;;;5.43;;
76131;SDS011;64877;50.994;13.650;2023-02-15T12:11:07;12.07;;;6.45;;
76131;SDS011;64877;50.994;13.650;2023-02-15T12:13:37;14.35;;;7.07;;
76131;SDS011;64877;50.994;13.650;2023-02-15T12:16:19;12.93;;;6.05;;
76131;SDS011;64877;50.994;13.650;2023-02-15T12:18:44;10.02;;;5.85;;
76131;SDS011;64877;50.994;13.650;2023-02-15T12:21:34;12.73;;;5.93;;
76131;SDS011;64877;50.994;13.650;2023-02-15T12:24:04;9.55;;;5.47;;
76131;SDS011;64877;50.994;13.650;2023-02-15T12:26:42;10.15;;;6.30;;
76131;SDS011;64877;50.994;13.650;2023-02-15T12:29:17;11.68;;;6.13;;
76131;SDS011;64877;50.994;13.650;2023-02-15T12:31:50;9.27;;;5.20;;
76131;SDS011;64877;50.994;13.650;2023-02-15T12:36:51;10.93;;;6.38;;
76131;SDS011;64877;50.994;13.650;2023-02-15T12:39:26;11.52;;;5.78;;
76131;SDS011;64877;50.994;13.650;2023-02-15T12:44:20;10.48;;;5.57;;
76131;SDS011;64877;50.994;13.650;2023-02-15T12:47:02;11.40;;;5.28;;
76131;SDS011;64877;50.994;13.650;2023-02-15T12:49:43;12.23;;;6.03;;
76131;SDS011;64877;50.994;13.650;2023-02-15T12:54:45;9.68;;;5.85;;
76131;SDS011;64877;50.994;13.650;2023-02-15T12:59:53;9.45;;;5.47;;
76131;SDS011;64877;50.994;13.650;2023-02-15T13:02:41;10.85;;;5.82;;
76131;SDS011;64877;50.994;13.650;2023-02-15T13:07:38;9.77;;;5.80;;
76131;SDS011;64877;50.994;13.650;2023-02-15T13:10:23;10.88;;;5.72;;
76131;SDS011;64877;50.994;13.650;2023-02-15T13:12:55;12.45;;;6.20;;
76131;SDS011;64877;50.994;13.650;2023-02-15T13:15:44;12.68;;;6.80;;
76131;SDS011;64877;50.994;13.650;2023-02-15T13:18:20;9.73;;;5.50;;
76131;SDS011;64877;50.994;13.650;2023-02-15T13:20:54;11.18;;;6.15;;
76131;SDS011;64877;50.994;13.650;2023-02-15T13:23:25;12.27;;;6.47;;
76131;SDS011;64877;50.994;13.650;2023-02-15T13:25:54;10.48;;;6.20;;
76131;SDS011;64877;50.994;13.650;2023-02-15T13:28:24;11.65;;;6.05;;
76131;SDS011;64877;50.994;13.650;2023-02-15T13:33:27;11.32;;;5.78;;
76131;SDS011;64877;50.994;13.650;2023-02-15T13:41:51;13.55;;;6.78;;
76131;SDS011;64877;50.994;13.650;2023-02-15T13:47:25;11.20;;;6.45;;
76131;SDS011;64877;50.994;13.650;2023-02-15T13:49:58;13.25;;;6.95;;
76131;SDS011;64877;50.994;13.650;2023-02-15T13:52:49;14.02;;;7.25;;
76131;SDS011;64877;50.994;13.650;2023-02-15T14:12:25;16.02;;;8.43;;
76131;SDS011;64877;50.994;13.650;2023-02-15T14:22:59;15.57;;;8.32;;
76131;SDS011;64877;50.994;13.650;2023-02-15T14:31:06;16.00;;;8.05;;
76131;SDS011;64877;50.994;13.650;2023-02-15T14:33:40;18.17;;;9.73;;
76131;SDS011;64877;50.994;13.650;2023-02-15T14:36:09;19.42;;;10.18;;
76131;SDS011;64877;50.994;13.650;2023-02-15T14:41:37;18.05;;;8.90;;
76131;SDS011;64877;50.994;13.650;2023-02-15T14:44:26;16.75;;;8.98;;
76131;SDS011;64877;50.994;13.650;2023-02-15T14:49:32;17.80;;;9.02;;
76131;SDS011;64877;50.994;13.650;2023-02-15T14:52:07;15.98;;;8.50;;
76131;SDS011;64877;50.994;13.650;2023-02-15T14:59:27;17.97;;;8.73;;
76131;SDS011;64877;50.994;13.650;2023-02-15T15:07:56;16.38;;;9.25;;
76131;SDS011;64877;50.994;13.650;2023-02-15T15:15:54;19.38;;;9.48;;
76131;SDS011;64877;50.994;13.650;2023-02-15T15:21:34;18.00;;;9.25;;
76131;SDS011;64877;50.994;13.650;2023-02-15T15:44:39;26.95;;;11.38;;
76131;SDS011;64877;50.994;13.650;2023-02-15T15:47:14;19.23;;;10.80;;
76131;SDS011;64877;50.994;13.650;2023-02-15T15:49:45;27.70;;;11.95;;
76131;SDS011;64877;50.994;13.650;2023-02-15T15:52:15;25.65;;;13.20;;
76131;SDS011;64877;50.994;13.650;2023-02-15T15:54:42;20.25;;;11.38;;
76131;SDS011;64877;50.994;13.650;2023-02-15T15:57:14;23.95;;;12.55;;
76131;SDS011;64877;50.994;13.650;2023-02-15T15:59:44;23.58;;;12.52;;
76131;SDS011;64877;50.994;13.650;2023-02-15T16:02:14;24.17;;;12.52;;
76131;SDS011;64877;50.994;13.650;2023-02-15T16:04:41;25.00;;;12.57;;
76131;SDS011;64877;50.994;13.650;2023-02-15T16:07:15;23.23;;;11.63;;
76131;SDS011;64877;50.994;13.650;2023-02-15T16:12:32;25.23;;;12.30;;
76131;SDS011;64877;50.994;13.650;2023-02-15T16:15:19;30.88;;;13.02;;
76131;SDS011;64877;50.994;13.650;2023-02-15T16:18:15;25.33;;;11.65;;
76131;SDS011;64877;50.994;13.650;2023-02-15T16:20:49;27.85;;;14.00;;
76131;SDS011;64877;50.994;13.650;2023-02-15T16:26:09;27.52;;;13.65;;
76131;SDS011;64877;50.994;13.650;2023-02-15T16:28:37;28.20;;;14.38;;
76131;SDS011;64877;50.994;13.650;2023-02-15T16:31:07;25.13;;;12.75;;
76131;SDS011;64877;50.994;13.650;2023-02-15T16:33:38;24.58;;;12.25;;
76131;SDS011;64877;50.994;13.650;2023-02-15T16:36:05;27.83;;;12.85;;
76131;SDS011;64877;50.994;13.650;2023-02-15T16:43:33;26.42;;;12.93;;
76131;SDS011;64877;50.994;13.650;2023-02-15T16:46:06;27.23;;;14.23;;
76131;SDS011;64877;50.994;13.650;2023-02-15T16:48:38;26.60;;;13.65;;
76131;SDS011;64877;50.994;13.650;2023-02-15T16:51:06;26.73;;;13.25;;
76131;SDS011;64877;50.994;13.650;2023-02-15T16:53:32;28.60;;;14.25;;
76131;SDS011;64877;50.994;13.650;2023-02-15T16:56:02;29.33;;;13.73;;
76131;SDS011;64877;50.994;13.650;2023-02-15T16:59:02;25.95;;;14.57;;
76131;SDS011;64877;50.994;13.650;2023-02-15T17:01:23;29.40;;;15.48;;
76131;SDS011;64877;50.994;13.650;2023-02-15T17:04:10;31.58;;;15.70;;
76131;SDS011;64877;50.994;13.650;2023-02-15T17:06:58;32.17;;;15.18;;
76131;SDS011;64877;50.994;13.650;2023-02-15T17:09:26;30.52;;;15.95;;
76131;SDS011;64877;50.994;13.650;2023-02-15T17:11:51;29.52;;;15.60;;
76131;SDS011;64877;50.994;13.650;2023-02-15T17:14:19;25.60;;;14.52;;
76131;SDS011;64877;50.994;13.650;2023-02-15T17:16:58;38.15;;;20.48;;
76131;SDS011;64877;50.994;13.650;2023-02-15T17:19:32;34.28;;;18.65;;
76131;SDS011;64877;50.994;13.650;2023-02-15T17:22:14;32.33;;;16.00;;
76131;SDS011;64877;50.994;13.650;2023-02-15T17:24:44;36.05;;;17.50;;
76131;SDS011;64877;50.994;13.650;2023-02-15T17:29:48;35.70;;;19.52;;
76131;SDS011;64877;50.994;13.650;2023-02-15T17:32:21;32.38;;;17.40;;
76131;SDS011;64877;50.994;13.650;2023-02-15T17:34:50;32.80;;;16.27;;
76131;SDS011;64877;50.994;13.650;2023-02-15T17:37:30;31.80;;;16.63;;
76131;SDS011;64877;50.994;13.650;2023-02-15T17:45:07;32.10;;;13.75;;
76131;SDS011;64877;50.994;13.650;2023-02-15T17:47:32;31.00;;;14.15;;
76131;SDS011;64877;50.994;13.650;2023-02-15T17:49:58;29.13;;;14.75;;
76131;SDS011;64877;50.994;13.650;2023-02-15T17:52:27;30.58;;;15.98;;
76131;SDS011;64877;50.994;13.650;2023-02-15T17:54:54;29.40;;;15.77;;
76131;SDS011;64877;50.994;13.650;2023-02-15T17:57:37;28.25;;;15.18;;
76131;SDS011;64877;50.994;13.650;2023-02-15T18:00:03;31.13;;;16.02;;
76131;SDS011;64877;50.994;13.650;2023-02-15T18:02:48;28.25;;;13.85;;
76131;SDS011;64877;50.994;13.650;2023-02-15T18:05:32;31.58;;;16.30;;
76131;SDS011;64877;50.994;13.650;2023-02-15T18:08:16;33.58;;;16.75;;
76131;SDS011;64877;50.994;13.650;2023-02-15T18:11:07;30.00;;;16.42;;
76131;SDS011;64877;50.994;13.650;2023-02-15T18:13:51;30.85;;;16.25;;
76131;SDS011;64877;50.994;13.650;2023-02-15T18:16:19;32.65;;;15.55;;
76131;SDS011;64877;50.994;13.650;2023-02-15T18:18:47;30.15;;;16.73;;
76131;SDS011;64877;50.994;13.650;2023-02-15T18:21:13;31.02;;;15.48;;
76131;SDS011;64877;50.994;13.650;2023-02-15T18:23:38;32.83;;;15.68;;
76131;SDS011;64877;50.994;13.650;2023-02-15T18:26:04;30.60;;;14.40;;
76131;SDS011;64877;50.994;13.650;2023-02-15T18:28:30;30.13;;;14.10;;
76131;SDS011;64877;50.994;13.650;2023-02-15T18:30:56;30.40;;;15.00;;
76131;SDS011;64877;50.994;13.650;2023-02-15T18:33:32;32.20;;;15.07;;
76131;SDS011;64877;50.994;13.650;2023-02-15T18:36:01;34.97;;;16.50;;
76131;SDS011;64877;50.994;13.650;2023-02-15T18:38:28;30.60;;;15.88;;